Time;durP1;ratioP1;P1;durP2;ratioP2;P2;SDS_P1;SDS_P2;PMS_P1;PMS_P2;Temp;Humidity;BMP_temperature;BMP_pressure;BME280_temperature;BME280_humidity;BME280_pressure;Samples;Min_cycle;Max_cycle;Signal;HPM_P1;HPM_P2
2022/03/04 00:01:55;;;;;;;93.50;44.30;;;;;;;6.84;61.99;100613.84;4994143;28;20416;-77
2022/03/04 00:04:21;;;;;;;68.72;42.17;;;;;;;6.88;62.08;100620.72;4994471;28;20033;-77
2022/03/04 00:06:47;;;;;;;69.63;37.78;;;;;;;6.83;62.10;100610.31;4994228;28;20038;-77
2022/03/04 00:09:12;;;;;;;82.88;34.75;;;;;;;6.80;62.18;100601.63;4993895;28;20109;-77
2022/03/04 00:11:38;;;;;;;70.22;35.20;;;;;;;7.01;62.26;100618.94;4992716;28;20117;-77
2022/03/04 00:14:04;;;;;;;58.88;34.17;;;;;;;6.96;62.08;100607.69;4992591;28;20118;-76
2022/03/04 00:16:30;;;;;;;58.00;31.27;;;;;;;6.88;61.80;100588.66;4992836;28;20038;-77
2022/03/04 00:19:09;;;;;;;56.75;34.25;;;;;;;7.07;61.68;100619.38;4993925;28;20026;-77
2022/03/04 00:21:42;;;;;;;58.17;29.60;;;;;;;7.14;61.46;100619.81;4992954;28;20030;-77
2022/03/04 00:24:10;;;;;;;55.45;32.22;;;;;;;7.15;61.75;100618.88;4993793;28;20034;-77
2022/03/04 00:26:36;;;;;;;57.92;31.30;;;;;;;7.17;61.85;100616.09;4993907;28;20037;-78
2022/03/04 00:29:03;;;;;;;49.63;28.77;;;;;;;7.07;61.24;100605.13;4992669;28;20507;-78
2022/03/04 00:31:28;;;;;;;65.22;36.38;;;;;;;7.18;61.27;100626.69;4993516;28;20034;-76
2022/03/04 00:33:54;;;;;;;76.32;43.45;;;;;;;7.10;61.81;100623.66;4993552;28;20121;-77
2022/03/04 00:36:22;;;;;;;79.47;43.25;;;;;;;6.97;61.55;100609.41;4993392;28;20034;-77
2022/03/04 00:38:52;;;;;;;75.32;43.05;;;;;;;7.05;61.54;100629.31;4993487;28;20085;-77
2022/03/04 00:41:19;;;;;;;92.07;47.22;;;;;;;7.02;61.54;100624.19;4975895;28;20026;-77
2022/03/04 00:43:45;;;;;;;91.93;49.92;;;;;;;6.89;61.65;100609.03;4993259;28;20244;-77
2022/03/04 00:46:11;;;;;;;82.55;51.35;;;;;;;6.87;62.05;100616.31;4993214;28;20030;-77
2022/03/04 00:48:38;;;;;;;88.82;48.67;;;;;;;6.91;61.98;100617.84;4993855;28;20393;-77
2022/03/04 00:51:04;;;;;;;87.20;49.30;;;;;;;7.01;62.33;100611.75;4993747;28;20475;-77
2022/03/04 00:53:30;;;;;;;91.53;49.08;;;;;;;7.05;62.01;100615.09;4992106;28;20116;-77
2022/03/04 00:55:56;;;;;;;88.88;51.63;;;;;;;7.05;61.78;100601.72;4993583;28;20058;-77
2022/03/04 00:58:22;;;;;;;95.80;52.08;;;;;;;6.94;62.09;100604.28;4993321;28;20119;-77
2022/03/04 01:00:47;;;;;;;95.10;53.65;;;;;;;7.03;62.15;100606.34;4993305;28;20499;-77
2022/03/04 01:03:13;;;;;;;87.45;50.88;;;;;;;7.13;61.78;100610.94;4993005;28;20404;-78
2022/03/04 01:05:38;;;;;;;95.75;49.78;;;;;;;7.15;61.85;100621.56;4991900;28;20038;-77
2022/03/04 01:08:04;;;;;;;83.95;48.13;;;;;;;7.10;62.09;100615.63;4991848;28;20457;-77
2022/03/04 01:10:30;;;;;;;76.47;48.47;;;;;;;7.04;61.88;100605.34;4992066;28;20547;-76
2022/03/04 01:12:55;;;;;;;88.10;48.85;;;;;;;7.02;62.21;100608.16;4993156;28;20035;-77
2022/03/04 01:15:21;;;;;;;92.63;50.97;;;;;;;7.16;62.40;100619.72;4993023;28;20592;-77
2022/03/04 01:17:46;;;;;;;91.25;50.63;;;;;;;7.15;61.91;100610.84;4993398;28;20034;-78
2022/03/04 01:20:12;;;;;;;84.15;46.47;;;;;;;7.17;61.79;100619.63;4991811;28;20462;-77
2022/03/04 01:22:37;;;;;;;85.95;44.72;;;;;;;7.13;61.89;100610.06;4992740;28;20084;-77
2022/03/04 01:25:03;;;;;;;79.38;44.80;;;;;;;7.07;61.41;100608.69;4991563;28;20106;-77
2022/03/04 01:27:29;;;;;;;79.60;45.28;;;;;;;6.96;61.72;100592.50;4991214;28;20045;-77
2022/03/04 01:29:55;;;;;;;70.38;42.22;;;;;;;7.04;61.91;100616.03;4992748;28;20034;-76
2022/03/04 01:32:20;;;;;;;58.70;35.70;;;;;;;7.03;61.79;100609.00;4992647;28;20421;-77
2022/03/04 01:34:46;;;;;;;56.35;33.58;;;;;;;7.03;61.47;100614.34;4993026;28;20038;-78
2022/03/04 01:37:11;;;;;;;52.92;31.33;;;;;;;6.97;61.46;100610.25;4992931;28;20044;-78
2022/03/04 01:39:37;;;;;;;58.13;31.25;;;;;;;6.93;61.85;100607.91;4992781;28;20058;-77
2022/03/04 01:42:03;;;;;;;50.80;30.95;;;;;;;6.86;61.97;100610.13;4992803;28;20037;-78
2022/03/04 01:44:29;;;;;;;51.25;28.88;;;;;;;6.84;61.87;100620.06;4992566;28;20033;-78
2022/03/04 01:46:54;;;;;;;46.42;26.80;;;;;;;6.83;61.67;100614.81;4991394;28;20054;-77
2022/03/04 01:49:20;;;;;;;46.45;25.80;;;;;;;6.73;61.43;100613.72;4992654;28;20064;-77
2022/03/04 01:51:46;;;;;;;46.80;28.23;;;;;;;6.68;61.48;100630.03;4992279;28;20236;-76
2022/03/04 01:54:11;;;;;;;46.92;26.10;;;;;;;6.61;61.87;100614.47;4992634;28;20061;-76
2022/03/04 01:56:37;;;;;;;43.42;25.85;;;;;;;6.56;61.81;100610.31;4990930;28;20026;-77
2022/03/04 01:59:03;;;;;;;43.97;25.30;;;;;;;6.64;62.26;100627.66;4990880;28;20031;-77
2022/03/04 02:01:29;;;;;;;43.92;25.73;;;;;;;6.59;62.06;100614.59;4992297;28;20069;-77
2022/03/04 02:03:54;;;;;;;40.38;24.80;;;;;;;6.50;62.16;100607.19;4991207;28;20034;-77
2022/03/04 02:06:21;;;;;;;51.88;24.92;;;;;;;6.61;61.83;100614.47;4992755;28;20563;-80
2022/03/04 02:08:47;;;;;;;44.25;25.25;;;;;;;6.54;61.79;100612.22;4992292;28;20117;-77
2022/03/04 02:11:13;;;;;;;44.92;25.88;;;;;;;6.51;61.78;100623.09;4992650;28;20058;-77
2022/03/04 02:13:39;;;;;;;50.05;25.08;;;;;;;6.50;61.97;100621.41;4991204;28;20167;-77
2022/03/04 02:16:13;;;;;;;41.60;24.55;;;;;;;6.41;61.98;100615.78;4992681;28;20562;-78
2022/03/04 02:18:39;;;;;;;39.42;23.85;;;;;;;6.47;62.20;100626.09;4991041;28;20022;-77
2022/03/04 02:21:08;;;;;;;42.75;24.80;;;;;;;6.23;62.01;100609.81;4992107;28;20481;-77
2022/03/04 02:23:33;;;;;;;46.28;24.75;;;;;;;6.19;62.41;100618.97;4992091;28;20044;-77
2022/03/04 02:25:59;;;;;;;42.03;24.70;;;;;;;6.21;62.81;100610.88;4992061;28;20031;-77
2022/03/04 02:28:24;;;;;;;45.88;23.92;;;;;;;6.25;62.49;100620.41;4992164;28;20845;-77
2022/03/04 02:30:50;;;;;;;51.67;30.92;;;;;;;6.18;62.32;100616.38;4992633;28;20049;-77
2022/03/04 02:33:16;;;;;;;48.92;29.08;;;;;;;6.15;62.48;100612.09;4992356;28;20030;-77
2022/03/04 02:35:42;;;;;;;52.83;32.47;;;;;;;6.15;62.53;100619.25;4992136;28;20593;-77
2022/03/04 02:38:08;;;;;;;63.10;34.30;;;;;;;6.07;62.42;100609.06;4992005;28;20030;-77
2022/03/04 02:40:33;;;;;;;58.20;35.80;;;;;;;5.96;62.42;100603.56;4990608;28;20038;-77
2022/03/04 02:42:59;;;;;;;57.25;34.20;;;;;;;5.99;62.54;100614.88;4990670;28;20065;-77
2022/03/04 02:45:25;;;;;;;53.50;32.22;;;;;;;5.84;62.66;100610.47;4991038;28;20108;-76
2022/03/04 02:47:51;;;;;;;59.42;34.50;;;;;;;5.86;62.54;100602.41;4992010;28;20050;-78
2022/03/04 02:50:16;;;;;;;63.85;35.33;;;;;;;5.90;62.84;100620.78;4991973;28;20107;-77
2022/03/04 02:52:42;;;;;;;56.78;33.45;;;;;;;5.90;62.90;100610.13;4992995;28;20035;-77
2022/03/04 02:55:11;;;;;;;65.43;35.08;;;;;;;5.90;62.33;100609.28;4994226;28;20471;-77
2022/03/04 02:57:38;;;;;;;58.75;33.67;;;;;;;5.90;62.94;100625.31;4994100;28;20038;-77
2022/03/04 03:00:05;;;;;;;59.67;33.00;;;;;;;6.00;62.58;100634.44;4995587;28;20441;-77
2022/03/04 03:02:30;;;;;;;56.83;31.38;;;;;;;5.98;62.84;100607.00;4995438;28;20093;-77
2022/03/04 03:04:56;;;;;;;49.78;29.02;;;;;;;6.12;62.21;100620.31;4995841;28;20419;-77
2022/03/04 03:07:21;;;;;;;49.60;30.55;;;;;;;6.20;62.29;100628.72;4995581;28;20408;-77
2022/03/04 03:09:47;;;;;;;47.10;29.65;;;;;;;6.17;62.14;100630.72;4995140;28;20066;-76
2022/03/04 03:12:12;;;;;;;42.85;28.10;;;;;;;6.11;61.91;100617.75;4994198;28;20030;-77
2022/03/04 03:14:37;;;;;;;50.08;29.90;;;;;;;6.08;61.98;100613.47;4995311;28;20026;-77
2022/03/04 03:17:04;;;;;;;53.42;32.33;;;;;;;6.05;61.52;100627.00;4995425;28;20491;-78
2022/03/04 03:19:29;;;;;;;51.80;32.45;;;;;;;5.90;62.12;100612.78;4995472;28;20015;-79
2022/03/04 03:21:55;;;;;;;55.35;34.08;;;;;;;6.04;62.23;100622.63;4993714;28;20130;-77
2022/03/04 03:24:20;;;;;;;69.03;33.22;;;;;;;5.97;62.39;100637.28;4995093;28;20042;-77
2022/03/04 03:26:46;;;;;;;71.25;34.80;;;;;;;5.83;62.58;100630.13;4995176;28;20504;-77
2022/03/04 03:29:11;;;;;;;62.50;34.38;;;;;;;5.79;63.07;100633.06;4994723;28;20037;-76
2022/03/04 03:31:37;;;;;;;70.90;40.22;;;;;;;5.71;63.36;100614.00;4995144;28;20034;-77
2022/03/04 03:34:02;;;;;;;59.67;35.83;;;;;;;5.63;63.19;100613.59;4995129;28;20053;-78
2022/03/04 03:36:28;;;;;;;62.70;33.00;;;;;;;5.68;63.14;100608.88;4994930;28;20397;-80
2022/03/04 03:38:53;;;;;;;58.17;34.72;;;;;;;5.68;63.23;100614.19;4993788;28;20447;-78
2022/03/04 03:41:18;;;;;;;64.60;37.83;;;;;;;5.62;63.18;100606.56;4994616;28;20034;-78
2022/03/04 03:43:44;;;;;;;66.03;39.22;;;;;;;5.65;63.17;100625.91;4994909;28;20340;-78
2022/03/04 03:46:10;;;;;;;61.10;33.38;;;;;;;5.64;63.28;100631.34;4994283;28;20096;-78
2022/03/04 03:48:39;;;;;;;54.55;33.63;;;;;;;5.61;63.25;100623.50;4994309;28;20038;-76
2022/03/04 03:51:06;;;;;;;49.00;29.83;;;;;;;5.62;62.79;100631.44;4994826;28;20037;-76
2022/03/04 03:53:32;;;;;;;58.78;29.77;;;;;;;5.62;62.83;100627.91;4994635;28;20034;-77
2022/03/04 03:55:57;;;;;;;46.65;31.27;;;;;;;5.57;63.02;100605.97;4994441;28;20022;-77
2022/03/04 03:58:23;;;;;;;52.60;29.98;;;;;;;5.69;63.22;100626.59;4994451;28;20093;-77
2022/03/04 04:00:48;;;;;;;54.72;29.15;;;;;;;5.58;62.77;100619.22;4994402;28;20113;-77
2022/03/04 04:03:14;;;;;;;47.45;29.30;;;;;;;5.57;62.85;100619.31;4993396;28;20030;-78
2022/03/04 04:05:39;;;;;;;57.22;30.85;;;;;;;5.55;62.61;100618.56;4994706;28;20042;-76
2022/03/04 04:08:05;;;;;;;55.42;29.90;;;;;;;5.48;62.75;100613.59;4993047;28;20072;-77
2022/03/04 04:10:31;;;;;;;54.42;31.33;;;;;;;5.44;62.79;100603.22;4994098;28;20480;-78
2022/03/04 04:12:57;;;;;;;68.70;30.00;;;;;;;5.45;62.91;100612.91;4994184;28;20026;-76
2022/03/04 04:15:22;;;;;;;52.17;32.45;;;;;;;5.39;63.22;100602.63;4992752;28;20473;-76
2022/03/04 04:17:48;;;;;;;60.63;30.65;;;;;;;5.41;62.94;100616.75;4992880;28;20469;-76
2022/03/04 04:20:13;;;;;;;56.20;31.33;;;;;;;5.36;62.67;100614.34;4994068;28;20088;-77
2022/03/04 04:22:39;;;;;;;62.70;30.42;;;;;;;5.25;62.68;100600.81;4994050;28;20450;-77
2022/03/04 04:25:05;;;;;;;56.20;30.50;;;;;;;5.26;63.11;100597.16;4993968;28;20037;-77
2022/03/04 04:27:30;;;;;;;50.78;31.00;;;;;;;5.19;63.12;100594.97;4992524;28;20029;-77
2022/03/04 04:29:56;;;;;;;50.45;28.77;;;;;;;5.28;63.08;100619.28;4993795;28;20030;-78
2022/03/04 04:32:21;;;;;;;53.17;27.90;;;;;;;5.21;62.88;100611.72;4993876;28;20041;-77
2022/03/04 04:34:47;;;;;;;54.47;30.65;;;;;;;5.12;62.99;100597.16;4992401;28;20388;-76
2022/03/04 04:37:13;;;;;;;60.33;30.60;;;;;;;5.14;62.68;100611.22;4993633;28;20041;-76
2022/03/04 04:39:38;;;;;;;72.60;39.00;;;;;;;5.12;62.82;100615.81;4993865;28;20026;-76
2022/03/04 04:42:05;;;;;;;68.07;36.10;;;;;;;5.08;62.97;100613.38;4993611;28;20031;-77
2022/03/04 04:44:30;;;;;;;62.45;36.03;;;;;;;5.00;62.97;100605.88;4992228;28;20034;-78
2022/03/04 04:46:56;;;;;;;64.35;33.97;;;;;;;5.02;62.95;100625.28;4992096;28;20100;-77
2022/03/04 04:49:23;;;;;;;71.22;33.50;;;;;;;4.93;62.89;100607.16;4992207;28;20113;-77
2022/03/04 04:51:49;;;;;;;92.38;34.53;;;;;;;4.87;62.95;100615.50;4993470;28;20034;-77
2022/03/04 04:54:15;;;;;;;83.70;32.72;;;;;;;4.87;63.01;100620.84;4993700;28;20042;-77
2022/03/04 04:56:40;;;;;;;82.53;36.25;;;;;;;4.92;63.35;100629.44;5000620;28;20037;-78
2022/03/04 04:59:06;;;;;;;149.38;70.88;;;;;;;4.83;63.38;100624.66;4993140;28;20064;-78
2022/03/04 05:01:31;;;;;;;172.15;79.03;;;;;;;4.89;63.52;100632.28;4992318;28;20412;-77
2022/03/04 05:03:57;;;;;;;122.22;56.80;;;;;;;4.89;63.30;100621.63;4992995;28;20495;-77
2022/03/04 05:06:22;;;;;;;81.65;41.65;;;;;;;4.85;63.17;100620.09;4992796;28;20026;-77
2022/03/04 05:08:48;;;;;;;105.63;49.67;;;;;;;4.91;63.32;100638.38;4992906;28;20101;-77
2022/03/04 05:11:13;;;;;;;66.95;39.47;;;;;;;4.78;63.37;100613.38;4993047;28;20030;-76
2022/03/04 05:13:39;;;;;;;82.53;40.70;;;;;;;4.93;63.13;100636.47;4992840;28;20528;-76
2022/03/04 05:16:04;;;;;;;66.45;34.47;;;;;;;4.95;63.24;100642.59;4992182;28;20081;-77
2022/03/04 05:18:31;;;;;;;85.78;37.00;;;;;;;4.72;63.59;100621.72;4991683;28;20563;-79
2022/03/04 05:20:57;;;;;;;77.05;37.65;;;;;;;4.84;63.49;100631.69;4992424;28;20109;-83
2022/03/04 05:26:06;;;;;;;78.10;33.35;;;;;;;4.90;64.06;100626.00;4993599;28;20037;-83
2022/03/04 05:28:31;;;;;;;82.95;32.35;;;;;;;5.01;63.87;100641.38;4993070;28;20022;-77
2022/03/04 05:30:57;;;;;;;78.25;33.78;;;;;;;5.12;64.02;100653.13;4992567;28;20030;-77
2022/03/04 05:33:23;;;;;;;62.08;30.17;;;;;;;5.23;64.25;100650.66;4992194;28;20465;-75
2022/03/04 05:35:48;;;;;;;63.75;28.50;;;;;;;5.29;64.12;100650.31;4992033;28;20038;-76
2022/03/04 05:38:14;;;;;;;80.82;29.70;;;;;;;5.40;64.27;100653.22;4992337;28;20027;-75
2022/03/04 05:40:39;;;;;;;71.80;30.15;;;;;;;5.58;64.27;100661.06;4992347;28;20088;-75
2022/03/04 05:43:05;;;;;;;70.05;30.40;;;;;;;5.70;64.17;100661.19;4992060;28;20045;-76
2022/03/04 05:45:30;;;;;;;74.63;30.20;;;;;;;5.90;63.89;100673.34;4990882;28;20050;-76
2022/03/04 05:47:55;;;;;;;107.53;33.33;;;;;;;6.11;63.88;100663.16;4991978;28;20050;-76
2022/03/04 05:50:21;;;;;;;75.78;30.00;;;;;;;6.30;63.36;100667.22;4990500;28;20064;-75
2022/03/04 05:52:46;;;;;;;105.93;32.78;;;;;;;6.42;62.97;100660.25;4991844;28;20109;-74
2022/03/04 05:55:12;;;;;;;74.38;30.08;;;;;;;6.65;63.14;100662.31;4993964;28;20050;-75
2022/03/04 05:57:59;;;;;;;78.10;34.70;;;;;;;6.89;62.45;100673.22;4990895;28;20037;-75
2022/03/04 06:00:26;;;;;;;90.43;45.85;;;;;;;7.00;62.16;100676.06;4993436;28;20044;-76
2022/03/04 06:02:51;;;;;;;107.15;41.03;;;;;;;7.15;61.93;100675.03;4991795;28;20084;-76
2022/03/04 06:05:17;;;;;;;96.50;41.03;;;;;;;7.24;61.83;100679.78;4991871;28;20334;-76
2022/03/04 06:07:42;;;;;;;73.53;40.28;;;;;;;7.23;61.81;100670.03;4991794;28;20038;-77
2022/03/04 06:10:09;;;;;;;95.88;41.88;;;;;;;7.42;61.75;100681.22;4991967;28;20528;-77
2022/03/04 06:12:34;;;;;;;109.07;44.50;;;;;;;7.50;61.43;100684.22;4991495;28;20117;-77
2022/03/04 06:15:00;;;;;;;93.53;43.90;;;;;;;7.61;60.79;100675.47;4991525;28;20190;-75
2022/03/04 06:17:26;;;;;;;110.63;48.03;;;;;;;7.62;60.45;100675.34;4991494;28;20053;-79
2022/03/04 06:19:51;;;;;;;115.00;56.60;;;;;;;7.70;60.28;100690.91;4992853;28;20018;-76
2022/03/04 06:22:18;;;;;;;126.35;66.72;;;;;;;7.63;59.98;100679.75;4991424;28;20022;-76
2022/03/04 06:24:44;;;;;;;142.77;69.53;;;;;;;7.74;59.81;100694.19;4991172;28;20068;-76
2022/03/04 06:27:10;;;;;;;152.98;71.60;;;;;;;7.90;59.79;100706.44;4991690;28;20057;-75
2022/03/04 06:29:36;;;;;;;144.30;70.57;;;;;;;7.96;59.62;100705.16;4994120;28;20022;-77
2022/03/04 06:32:01;;;;;;;154.93;71.57;;;;;;;8.01;59.48;100711.91;4995261;28;20029;-76
2022/03/04 06:34:27;;;;;;;146.60;67.30;;;;;;;8.07;59.52;100698.06;4994187;28;20558;-76
2022/03/04 06:36:52;;;;;;;154.68;68.85;;;;;;;8.18;59.48;100706.25;4995142;28;20045;-76
2022/03/04 06:39:18;;;;;;;129.80;68.25;;;;;;;8.14;59.46;100709.22;4995041;28;20093;-76
2022/03/04 06:41:43;;;;;;;141.63;74.35;;;;;;;8.12;59.19;100704.00;4993438;28;20026;-76
2022/03/04 06:44:09;;;;;;;153.25;76.88;;;;;;;8.23;59.78;100705.91;4993849;28;20369;-76
2022/03/04 06:46:34;;;;;;;151.07;65.57;;;;;;;8.35;59.12;100707.75;4994468;28;20054;-77
2022/03/04 06:49:00;;;;;;;123.13;62.50;;;;;;;8.41;59.56;100699.28;4995040;28;20030;-76
2022/03/04 06:51:26;;;;;;;149.20;63.03;;;;;;;8.49;59.14;100693.38;4994936;28;20026;-76
2022/03/04 06:53:52;;;;;;;110.75;58.05;;;;;;;8.61;59.27;100705.91;4994803;28;20448;-77
2022/03/04 06:56:18;;;;;;;125.00;58.60;;;;;;;8.64;59.11;100708.34;4993194;28;20157;-76
2022/03/04 06:58:44;;;;;;;188.98;61.58;;;;;;;8.68;58.43;100699.97;4994522;28;20019;-76
2022/03/04 07:01:10;;;;;;;122.05;60.42;;;;;;;8.75;58.75;100698.56;4993296;28;20125;-76
2022/03/04 07:03:36;;;;;;;126.38;55.47;;;;;;;8.92;58.84;100704.53;4993345;28;20109;-76
2022/03/04 07:06:02;;;;;;;105.03;51.15;;;;;;;9.00;59.06;100703.00;4993433;28;20032;-78
2022/03/04 07:08:28;;;;;;;95.72;46.45;;;;;;;9.11;58.46;100704.91;4992960;28;20118;-75
2022/03/04 07:10:53;;;;;;;120.43;47.80;;;;;;;9.17;58.07;100693.72;4995612;28;20105;-76
2022/03/04 07:13:21;;;;;;;83.82;42.95;;;;;;;9.29;57.66;100698.16;4994674;28;20120;-76
2022/03/04 07:15:47;;;;;;;112.53;41.63;;;;;;;9.43;57.00;100695.28;4994275;28;20030;-76
2022/03/04 07:18:13;;;;;;;79.32;39.08;;;;;;;9.54;55.13;100692.63;4994860;28;20026;-78
2022/03/04 07:20:40;;;;;;;170.77;41.60;;;;;;;9.44;55.13;100691.63;4993221;28;20085;-76
2022/03/04 07:23:06;;;;;;;64.57;30.90;;;;;;;9.39;54.47;100684.91;4994107;28;20104;-76
2022/03/04 07:25:32;;;;;;;66.32;35.08;;;;;;;9.35;54.86;100686.97;4992875;28;20481;-75
2022/03/04 07:27:57;;;;;;;72.40;40.00;;;;;;;9.20;55.85;100701.53;4993934;28;20073;-76
2022/03/04 07:30:23;;;;;;;92.20;47.97;;;;;;;9.12;56.56;100701.22;4993821;28;20026;-76
2022/03/04 07:32:49;;;;;;;104.97;53.67;;;;;;;9.20;56.95;100698.84;4994005;28;20378;-76
2022/03/04 07:35:15;;;;;;;101.60;52.40;;;;;;;9.19;57.21;100713.22;4993836;28;20037;-76
2022/03/04 07:37:42;;;;;;;91.18;46.88;;;;;;;9.06;56.60;100702.53;4992490;28;20019;-76
2022/03/04 07:40:10;;;;;;;86.15;50.83;;;;;;;9.02;57.38;100709.09;4992625;28;20028;-77
2022/03/04 07:42:36;;;;;;;103.47;53.03;;;;;;;9.23;57.32;100698.63;4993068;28;20056;-78
2022/03/04 07:45:03;;;;;;;91.22;48.58;;;;;;;9.41;56.75;100693.69;5003239;28;20022;-78
2022/03/04 07:47:29;;;;;;;98.53;50.33;;;;;;;9.53;56.27;100690.06;5001612;28;20057;-76
2022/03/04 07:49:54;;;;;;;97.30;50.10;;;;;;;9.65;56.02;100689.13;4993154;28;20034;-77
2022/03/04 07:52:20;;;;;;;76.63;44.40;;;;;;;9.87;54.91;100693.72;4992674;28;20034;-76
2022/03/04 07:54:45;;;;;;;120.82;46.30;;;;;;;10.03;53.83;100691.56;4993836;28;20026;-76
2022/03/04 07:57:11;;;;;;;77.22;38.55;;;;;;;10.13;52.29;100688.03;4993682;28;20591;-77
2022/03/04 07:59:36;;;;;;;79.47;41.90;;;;;;;10.28;52.21;100678.78;4992239;28;20027;-76
2022/03/04 08:02:02;;;;;;;86.00;39.35;;;;;;;10.29;51.34;100687.69;4993037;28;20026;-76
2022/03/04 08:04:28;;;;;;;83.22;42.75;;;;;;;10.41;50.84;100684.03;4993701;28;20109;-79
2022/03/04 08:06:54;;;;;;;81.82;41.67;;;;;;;10.47;50.18;100671.94;4992868;28;20108;-78
2022/03/04 08:09:20;;;;;;;83.13;41.33;;;;;;;10.60;49.95;100684.28;4992650;28;20019;-79
2022/03/04 08:11:46;;;;;;;60.67;34.55;;;;;;;10.71;48.33;100676.19;4994029;28;20068;-79
2022/03/04 08:14:12;;;;;;;73.35;37.35;;;;;;;10.84;47.88;100678.72;4993172;28;20026;-76
2022/03/04 08:16:38;;;;;;;88.28;39.15;;;;;;;10.90;47.46;100679.09;4994130;28;20109;-77
2022/03/04 08:19:05;;;;;;;59.42;35.03;;;;;;;10.96;46.61;100680.41;4992349;28;20025;-77
2022/03/04 08:21:31;;;;;;;61.58;32.80;;;;;;;10.87;46.44;100676.66;4992962;28;20037;-76
2022/03/04 08:23:56;;;;;;;100.15;34.47;;;;;;;10.96;46.19;100680.41;4992798;28;20018;-77
2022/03/04 08:26:21;;;;;;;82.93;38.28;;;;;;;10.96;46.27;100668.78;4991345;28;20053;-77
2022/03/04 08:28:47;;;;;;;65.15;34.10;;;;;;;11.03;46.00;100675.41;4992999;28;20045;-77
2022/03/04 08:31:13;;;;;;;78.00;36.75;;;;;;;10.96;45.90;100669.66;4992052;28;20496;-76
2022/03/04 08:33:43;;;;;;;67.07;34.40;;;;;;;11.11;45.80;100673.78;4993526;28;20037;-76
2022/03/04 08:36:09;;;;;;;55.95;28.63;;;;;;;11.22;45.27;100670.19;4991674;28;20037;-76
2022/03/04 08:38:35;;;;;;;60.53;29.48;;;;;;;11.30;44.98;100675.78;4991530;28;20018;-76
2022/03/04 08:41:00;;;;;;;58.50;26.35;;;;;;;11.43;44.54;100679.19;4991543;28;20365;-76
2022/03/04 08:43:26;;;;;;;46.17;24.73;;;;;;;11.43;42.84;100684.56;4991369;28;20137;-76
2022/03/04 08:45:52;;;;;;;54.88;25.13;;;;;;;11.45;43.51;100683.44;4993096;28;20027;-76
2022/03/04 08:48:18;;;;;;;74.20;35.90;;;;;;;11.41;44.16;100675.72;4995418;28;20050;-77
2022/03/04 08:50:43;;;;;;;83.68;40.65;;;;;;;11.51;44.79;100682.06;4992862;28;20394;-76
2022/03/04 08:53:09;;;;;;;86.85;47.58;;;;;;;11.59;45.93;100679.56;4991152;28;20045;-75
2022/03/04 08:55:34;;;;;;;103.28;47.78;;;;;;;11.54;46.16;100681.81;4992713;28;20026;-76
2022/03/04 08:58:00;;;;;;;95.25;47.20;;;;;;;11.62;46.01;100690.06;4991390;28;20023;-75
2022/03/04 09:00:30;;;;;;;93.20;41.63;;;;;;;11.68;45.97;100684.16;5007345;28;20034;-76
2022/03/04 09:02:55;;;;;;;94.03;43.22;;;;;;;11.64;46.99;100680.06;4992306;28;20033;-75
2022/03/04 09:05:21;;;;;;;87.47;34.75;;;;;;;11.83;46.01;100680.19;4990508;28;20045;-75
2022/03/04 09:07:47;;;;;;;55.17;28.20;;;;;;;11.93;44.82;100678.44;4990809;28;20022;-76
2022/03/04 09:10:12;;;;;;;45.58;22.15;;;;;;;11.93;43.13;100678.44;4992308;28;20029;-76
2022/03/04 09:12:38;;;;;;;30.17;18.08;;;;;;;11.94;42.11;100666.66;4992218;28;20550;-75
2022/03/04 09:15:05;;;;;;;30.40;16.13;;;;;;;11.96;42.47;100672.78;4992267;28;20050;-76
2022/03/04 09:17:30;;;;;;;28.98;15.30;;;;;;;11.95;42.45;100668.41;4991903;28;20030;-74
2022/03/04 09:19:56;;;;;;;25.38;13.38;;;;;;;12.17;41.99;100663.84;4992247;28;20087;-77
2022/03/04 09:22:21;;;;;;;34.53;14.23;;;;;;;12.23;41.82;100669.50;4992128;28;20034;-77
2022/03/04 09:24:47;;;;;;;30.60;16.35;;;;;;;12.34;41.13;100665.88;4990755;28;20164;-77
2022/03/04 09:27:12;;;;;;;28.88;15.93;;;;;;;12.40;41.16;100673.44;4990763;28;20018;-75
2022/03/04 09:29:38;;;;;;;21.27;13.10;;;;;;;12.43;39.76;100670.47;4991821;28;20041;-77
2022/03/04 09:32:04;;;;;;;27.98;14.25;;;;;;;12.43;39.58;100675.88;4992174;28;20065;-77
2022/03/04 09:34:29;;;;;;;23.92;14.02;;;;;;;12.39;39.81;100666.31;4991971;28;20022;-76
2022/03/04 09:36:54;;;;;;;24.65;15.30;;;;;;;12.39;39.84;100674.41;4992141;28;20181;-76
2022/03/04 09:39:20;;;;;;;32.97;14.13;;;;;;;12.51;40.81;100667.94;4991922;28;20022;-75
2022/03/04 09:41:46;;;;;;;31.38;16.52;;;;;;;12.53;39.90;100665.97;4992045;28;20019;-76
2022/03/04 09:44:13;;;;;;;34.92;15.95;;;;;;;12.50;39.67;100669.81;4991720;28;20022;-76
2022/03/04 09:46:43;;;;;;;23.75;14.55;;;;;;;12.57;39.20;100675.47;4991673;28;20042;-75
2022/03/04 09:49:09;;;;;;;42.85;21.70;;;;;;;12.46;39.14;100667.50;4993238;28;20058;-75
2022/03/04 09:51:35;;;;;;;39.38;15.98;;;;;;;12.62;39.22;100665.16;4992659;28;20026;-76
2022/03/04 09:54:01;;;;;;;48.33;25.33;;;;;;;12.65;40.08;100659.47;4990345;28;20042;-75
2022/03/04 09:56:27;;;;;;;70.68;35.70;;;;;;;12.70;42.88;100670.72;4991715;28;20034;-76
2022/03/04 09:58:53;;;;;;;56.00;32.17;;;;;;;12.50;44.52;100650.06;4991670;28;20077;-76
2022/03/04 10:01:19;;;;;;;53.00;27.67;;;;;;;12.44;45.29;100651.47;4992111;28;20604;-76
2022/03/04 10:03:50;;;;;;;53.88;31.70;;;;;;;12.38;44.97;100648.44;4998870;28;20034;-77
2022/03/04 10:06:16;;;;;;;44.05;26.85;;;;;;;12.23;43.44;100647.13;4997376;28;20038;-76
2022/03/04 10:08:51;;;;;;;62.13;33.15;;;;;;;11.90;45.71;100640.97;4995476;28;20493;-76
2022/03/04 10:11:27;;;;;;;56.47;30.00;;;;;;;11.69;45.37;100640.09;4995535;28;20513;-77
2022/03/04 10:13:55;;;;;;;42.40;23.63;;;;;;;11.66;43.95;100648.44;4995868;28;20057;-77
2022/03/04 10:16:27;;;;;;;47.35;20.48;;;;;;;11.79;42.72;100637.50;4995782;28;20496;-75
2022/03/04 10:19:18;;;;;;;58.15;20.92;;;;;;;11.81;42.06;100641.75;4995249;28;20105;-76
2022/03/04 10:21:56;;;;;;;42.90;19.80;;;;;;;11.86;40.62;100633.28;4995307;28;20512;-77
2022/03/04 10:24:30;;;;;;;33.97;16.98;;;;;;;11.94;40.42;100620.84;4994022;28;20030;-77
2022/03/04 10:27:08;;;;;;;42.08;22.83;;;;;;;12.22;41.34;100621.13;4993829;28;20385;-76
2022/03/04 10:29:36;;;;;;;52.20;27.73;;;;;;;12.08;45.11;100626.88;4993772;28;20038;-79
2022/03/04 10:32:22;;;;;;;49.17;30.17;;;;;;;11.30;49.36;100627.31;4995361;28;20022;-76
2022/03/04 10:34:48;;;;;;;50.58;30.42;;;;;;;10.97;50.67;100643.59;4995307;28;20079;-77
2022/03/04 10:37:17;;;;;;;72.10;33.00;;;;;;;10.92;51.13;100628.69;4995287;28;20026;-77
2022/03/04 10:40:01;;;;;;;51.10;29.40;;;;;;;10.69;52.10;100635.13;4995405;28;20085;-77
2022/03/04 10:42:48;;;;;;;68.40;29.88;;;;;;;10.74;51.87;100632.03;4995216;28;20030;-77
2022/03/04 10:45:18;;;;;;;61.53;30.58;;;;;;;10.60;50.98;100630.50;4995362;28;20034;-76
2022/03/04 10:47:51;;;;;;;66.40;31.77;;;;;;;10.67;50.80;100620.91;4993706;28;20054;-76
2022/03/04 10:50:24;;;;;;;64.55;30.52;;;;;;;10.77;50.51;100624.56;4993770;28;20037;-76
2022/03/04 10:52:53;;;;;;;66.68;29.65;;;;;;;10.83;50.85;100618.69;4994826;28;20116;-76
2022/03/04 10:55:25;;;;;;;49.95;26.48;;;;;;;10.99;50.24;100625.47;4995033;28;20077;-75
2022/03/04 10:57:52;;;;;;;104.15;34.20;;;;;;;11.02;50.28;100609.09;4994798;28;20084;-76
2022/03/04 11:00:35;;;;;;;61.60;29.08;;;;;;;11.02;50.81;100625.22;4994894;28;20037;-78
2022/03/04 11:03:01;;;;;;;73.00;31.02;;;;;;;11.00;51.03;100622.69;4994767;28;20046;-77
2022/03/04 11:05:27;;;;;;;90.00;28.98;;;;;;;11.07;50.91;100621.16;4994557;28;20040;-77
2022/03/04 11:07:53;;;;;;;53.78;28.50;;;;;;;10.96;51.27;100609.59;4994081;28;20113;-78
2022/03/04 11:10:20;;;;;;;58.40;27.35;;;;;;;11.01;52.07;100615.47;4994874;28;20030;-76
2022/03/04 11:12:50;;;;;;;81.40;30.88;;;;;;;11.04;52.90;100612.53;4992664;28;20042;-76
2022/03/04 11:15:17;;;;;;;54.50;26.85;;;;;;;11.14;52.69;100613.44;4994658;28;20049;-76